The Farmers Guide 72-hour weather forecast

Enter Postcode:

77% Chance of Thunderstorm

(21:00)

23.6°C

IP2 0SS

Wind Soil
Date Time Weather Temp Rain Humid Cloud Press (mph) Temp Moist
01/07 21:00 23.6°C 0.4mm 66% 21% 1013mb 8ssw (192 degrees) 20.5°C 0.2%
02/07 00:00 20.6°C 0.4mm 79% 22% 1014mb 9sww (243 degrees) 20.2°C 0.2%
03:00 16.8°C 0.0mm 88% 14% 1016mb 7w (261 degrees) 19.6°C 0.2%
06:00 18.8°C 0.0mm 82% 33% 1017mb 6w (267 degrees) 19.0°C 0.2%
09:00 22.3°C 0.0mm 65% 88% 1019mb 5w (263 degrees) 19.2°C 0.2%
12:00 23.3°C 0.0mm 59% 94% 1019mb 9nnw (333 degrees) 19.6°C 0.2%
15:00 25.6°C 0.0mm 51% 98% 1019mb 9nee (70 degrees) 20.1°C 0.2%
18:00 21.6°C 0.0mm 76% 75% 1019mb 8se (135 degrees) 20.5°C 0.2%
21:00 17.6°C 0.0mm 91% 0% 1021mb 6sw (217 degrees) 20.0°C 0.2%
03/07 00:00 16.4°C 0.0mm 96% 0% 1022mb 7nww (289 degrees) 19.3°C 0.2%
03:00 15.6°C 0.0mm 98% 0% 1023mb 7w (274 degrees) 18.6°C 0.2%
06:00 17.1°C 0.0mm 87% 0% 1024mb 9nw (304 degrees) 18.1°C 0.2%
09:00 22.3°C 0.0mm 63% 0% 1025mb 3nne (26 degrees) 18.4°C 0.2%
12:00 25.0°C 0.0mm 50% 0% 1025mb 5se (140 degrees) 19.7°C 0.2%
15:00 24.4°C 0.0mm 55% 6% 1024mb 11se (126 degrees) 20.6°C 0.2%
18:00 20.9°C 0.0mm 69% 39% 1023mb 11e (87 degrees) 20.7°C 0.2%
21:00 17.3°C 0.2mm 86% 93% 1023mb 11e (83 degrees) 20.2°C 0.2%
04/07 00:00 17.0°C 2.1mm 88% 96% 1021mb 11e (89 degrees) 19.5°C 0.2%
03:00 18.0°C 0.0mm 85% 98% 1018mb 11e (99 degrees) 18.9°C 0.2%
06:00 20.2°C 0.4mm 87% 94% 1016mb 10se (126 degrees) 18.6°C 0.2%
09:00 25.6°C 0.0mm 70% 53% 1016mb 8sse (164 degrees) 19.2°C 0.2%
12:00 28.8°C 0.0mm 62% 73% 1016mb 6ssw (193 degrees) 20.4°C 0.2%
15:00 30.1°C 0.0mm 48% 68% 1016mb 10sw (228 degrees) 21.5°C 0.2%
18:00 27.5°C 0.0mm 49% 35% 1016mb 8sww (249 degrees) 22.2°C 0.2%
The Farmers Guide weather forecast is a free service for users of this website.
 
We now carry forecasts based on postcodes. Just enter your postcode and the weather page will display the forecast for the following 72 hours, broken down into three-hour intervals.
 
The forecast data provided for each three-hour period includes: a general graphic showing the likely weather conditions; average temperatures for the period; cloud cover; barometric pressure; wind speed and direction; humidity; and rainfall.
 
An indication of the likely soil temperature and soil moisture will also be displayed for most postcodes, although this data is not available for every area.
 
We hope you will find this service useful and would welcome any feedback from you.
 
 

Search

Read our full June issue here FREE!

Advertisments